Time;durP1;ratioP1;P1;durP2;ratioP2;P2;SDS_P1;SDS_P2;PMS_P1;PMS_P2;Temp;Humidity;BMP_temperature;BMP_pressure;BME280_temperature;BME280_humidity;BME280_pressure;Samples;Min_cycle;Max_cycle;Signal;HPM_P1;HPM_P2
2022/07/05 00:00:05;;;;;;;5.60;1.08;;;14.40;99.90;;;;;;5044390;28;20033;-77
2022/07/05 00:02:33;;;;;;;4.93;0.73;;;14.40;99.90;;;;;;5044379;28;20487;-75
2022/07/05 00:05:00;;;;;;;1.83;0.70;;;14.50;99.90;;;;;;5037504;28;20485;-79
2022/07/05 00:07:28;;;;;;;5.03;0.85;;;14.50;99.90;;;;;;5051380;28;20054;-77
2022/07/05 00:09:57;;;;;;;6.70;1.20;;;14.70;99.90;;;;;;5050249;28;20041;-76
2022/07/05 00:12:34;;;;;;;4.38;1.10;;;14.70;99.90;;;;;;5038472;28;20036;-75
2022/07/05 00:15:03;;;;;;;4.55;0.85;;;14.80;99.90;;;;;;5054880;28;20027;-74
2022/07/05 00:17:30;;;;;;;6.72;1.60;;;14.90;99.90;;;;;;5042588;28;20109;-76
2022/07/05 00:19:57;;;;;;;6.80;2.08;;;14.90;99.90;;;;;;5040655;28;20028;-82
2022/07/05 00:22:25;;;;;;;2.50;0.82;;;14.80;99.90;;;;;;5040553;28;20100;-76
2022/07/05 00:24:52;;;;;;;4.72;0.95;;;14.80;99.90;;;;;;5047245;28;20206;-77
2022/07/05 00:27:20;;;;;;;4.40;1.33;;;14.70;99.90;;;;;;5048350;28;20433;-77
2022/07/05 00:29:47;;;;;;;0.93;0.60;;;14.70;99.90;;;;;;5049120;28;20122;-77
2022/07/05 00:32:14;;;;;;;5.07;0.68;;;14.70;99.90;;;;;;5030713;28;20025;-73
2022/07/05 00:34:42;;;;;;;2.67;1.10;;;14.60;99.90;;;;;;5040142;28;20370;-77
2022/07/05 00:37:09;;;;;;;3.58;0.52;;;14.70;99.90;;;;;;5033252;28;20021;-77
2022/07/05 00:39:37;;;;;;;3.17;0.75;;;14.80;99.90;;;;;;5032472;28;20032;-74
2022/07/05 00:42:04;;;;;;;2.90;0.45;;;14.90;99.90;;;;;;5039098;28;20041;-78
2022/07/05 00:44:35;;;;;;;2.28;0.60;;;14.90;99.90;;;;;;5046214;28;20024;-72
2022/07/05 00:47:06;;;;;;;5.60;1.13;;;15.10;99.90;;;;;;5048461;28;20080;-76
2022/07/05 00:49:34;;;;;;;3.72;0.85;;;15.20;99.90;;;;;;5043088;28;20045;-78
2022/07/05 00:52:03;;;;;;;7.15;0.88;;;15.20;99.90;;;;;;5041942;28;20064;-77
2022/07/05 00:54:33;;;;;;;3.38;0.70;;;15.30;99.90;;;;;;5041811;28;20048;-77
2022/07/05 00:57:00;;;;;;;2.78;0.70;;;15.20;99.90;;;;;;5036200;28;20044;-77
2022/07/05 00:59:32;;;;;;;5.20;1.83;;;15.20;99.90;;;;;;5048865;28;20179;-79
2022/07/05 01:02:00;;;;;;;5.82;2.80;;;15.20;99.90;;;;;;5054299;28;20025;-75
2022/07/05 01:04:27;;;;;;;5.13;1.05;;;15.30;99.90;;;;;;5039299;28;20356;-73
2022/07/05 01:06:55;;;;;;;1.90;0.60;;;15.40;99.90;;;;;;5039478;28;20461;-74
2022/07/05 01:09:23;;;;;;;3.92;1.10;;;15.50;99.90;;;;;;5034741;28;20033;-73
2022/07/05 01:11:52;;;;;;;2.92;0.95;;;15.60;99.90;;;;;;5035397;28;20030;-74
2022/07/05 01:14:21;;;;;;;4.53;0.63;;;15.70;99.90;;;;;;5034914;28;20018;-76
2022/07/05 01:16:50;;;;;;;2.95;0.60;;;15.90;99.90;;;;;;5033481;28;20029;-79
2022/07/05 01:19:20;;;;;;;1.88;0.50;;;16.00;99.90;;;;;;5035349;28;20025;-76
2022/07/05 01:21:48;;;;;;;2.25;0.55;;;16.10;99.90;;;;;;5034760;28;20033;-72
2022/07/05 01:24:18;;;;;;;1.50;1.40;;;16.30;99.90;;;;;;5032215;28;20037;-75
2022/07/05 01:26:51;;;;;;;1.75;0.55;;;16.40;99.90;;;;;;5031451;28;20030;-77
2022/07/05 01:29:19;;;;;;;4.75;0.70;;;16.40;99.90;;;;;;5038527;28;20039;-72
2022/07/05 01:31:46;;;;;;;2.50;0.47;;;16.40;99.90;;;;;;5062367;28;20505;-76
2022/07/05 01:34:13;;;;;;;1.63;0.47;;;16.20;99.90;;;;;;5046584;28;20035;-75
2022/07/05 01:36:41;;;;;;;0.82;0.25;;;16.20;99.90;;;;;;5042543;28;20064;-74
2022/07/05 01:39:10;;;;;;;3.20;0.50;;;16.00;99.90;;;;;;5046220;28;20113;-77
2022/07/05 01:41:37;;;;;;;5.05;0.63;;;15.90;99.90;;;;;;5043436;28;20529;-75
2022/07/05 01:44:05;;;;;;;2.35;0.63;;;15.80;99.90;;;;;;5033021;28;20034;-73
2022/07/05 01:46:36;;;;;;;2.00;0.50;;;15.70;99.90;;;;;;5041288;28;20045;-74
2022/07/05 01:49:10;;;;;;;4.70;0.45;;;15.60;99.90;;;;;;5043147;28;20479;-77
2022/07/05 01:51:51;;;;;;;5.10;0.88;;;15.40;99.90;;;;;;5037222;28;20036;-74
2022/07/05 01:54:20;;;;;;;4.15;1.30;;;15.30;99.90;;;;;;5048571;28;20627;-73
2022/07/05 01:56:47;;;;;;;1.55;0.63;;;15.10;99.90;;;;;;5048437;28;20072;-75
2022/07/05 01:59:15;;;;;;;6.00;0.82;;;15.00;99.90;;;;;;5061760;28;20053;-72
2022/07/05 02:01:42;;;;;;;2.63;0.93;;;15.00;99.90;;;;;;5043316;28;20143;-72
2022/07/05 02:04:11;;;;;;;2.60;0.55;;;15.00;99.90;;;;;;5036547;28;20494;-75
2022/07/05 02:06:39;;;;;;;3.97;0.77;;;15.00;99.90;;;;;;5033396;28;20084;-71
2022/07/05 02:09:07;;;;;;;5.60;0.90;;;15.00;99.90;;;;;;5035042;28;20030;-77
2022/07/05 02:11:35;;;;;;;3.97;1.02;;;15.00;99.90;;;;;;5032591;28;20482;-76
2022/07/05 02:14:03;;;;;;;3.85;1.02;;;15.00;99.90;;;;;;5040665;28;20040;-76
2022/07/05 02:16:30;;;;;;;4.97;1.58;;;15.00;99.90;;;;;;5034023;28;20060;-73
2022/07/05 02:18:58;;;;;;;3.83;0.65;;;15.00;99.90;;;;;;5042591;28;20108;-75
2022/07/05 02:21:25;;;;;;;2.13;0.70;;;15.00;99.90;;;;;;5052603;28;20059;-76
2022/07/05 02:23:54;;;;;;;10.43;1.45;;;15.00;99.90;;;;;;5056021;28;20827;-75
2022/07/05 02:26:21;;;;;;;6.72;1.33;;;15.10;99.90;;;;;;5041924;28;20037;-76
2022/07/05 02:28:49;;;;;;;5.20;1.05;;;15.20;99.90;;;;;;5040375;28;20051;-75
2022/07/05 02:31:18;;;;;;;4.28;1.33;;;15.20;99.90;;;;;;5038913;28;20038;-75
2022/07/05 02:33:45;;;;;;;3.13;1.33;;;15.30;99.90;;;;;;5045710;28;20039;-74
2022/07/05 02:36:14;;;;;;;6.05;1.60;;;15.40;99.90;;;;;;5045744;28;20044;-74
2022/07/05 02:38:42;;;;;;;8.35;3.25;;;15.40;99.90;;;;;;5034246;28;20025;-73
2022/07/05 02:41:10;;;;;;;2.05;0.98;;;15.50;99.90;;;;;;5047684;28;20509;-76
2022/07/05 02:43:38;;;;;;;5.30;1.45;;;15.50;99.90;;;;;;5037677;28;20479;-75
2022/07/05 02:46:07;;;;;;;6.45;1.58;;;15.60;99.90;;;;;;5040412;28;20028;-75
2022/07/05 02:48:36;;;;;;;1.98;0.50;;;15.60;99.90;;;;;;5045941;28;20021;-76
2022/07/05 02:51:05;;;;;;;0.95;0.40;;;15.60;99.90;;;;;;5037306;28;20041;-76
2022/07/05 02:53:34;;;;;;;5.00;0.93;;;15.60;99.90;;;;;;5043800;28;20049;-75
2022/07/05 02:56:02;;;;;;;3.10;0.90;;;15.70;99.90;;;;;;5045052;28;20041;-74
2022/07/05 02:58:29;;;;;;;9.00;0.95;;;15.70;99.90;;;;;;5049387;28;20471;-76
2022/07/05 03:00:56;;;;;;;5.43;0.65;;;15.70;99.90;;;;;;5032028;28;20030;-76
2022/07/05 03:03:24;;;;;;;6.03;1.10;;;15.80;99.90;;;;;;5034928;28;20025;-76
2022/07/05 03:05:51;;;;;;;4.05;1.15;;;15.90;99.90;;;;;;5039000;28;20086;-75
2022/07/05 03:08:18;;;;;;;4.57;1.58;;;15.90;99.90;;;;;;5045083;28;20028;-76
2022/07/05 03:10:46;;;;;;;2.08;0.43;;;15.90;99.90;;;;;;5046982;28;20068;-75
2022/07/05 03:13:13;;;;;;;3.00;0.70;;;15.90;99.90;;;;;;5036439;28;20022;-78
2022/07/05 03:15:41;;;;;;;3.58;1.52;;;16.00;99.90;;;;;;5039300;28;20463;-76
2022/07/05 03:18:09;;;;;;;2.35;0.60;;;16.00;99.90;;;;;;5044052;28;20029;-74
2022/07/05 03:20:36;;;;;;;4.82;1.02;;;16.10;99.90;;;;;;5040468;28;20057;-76
2022/07/05 03:23:04;;;;;;;2.30;0.50;;;16.10;99.90;;;;;;5031811;28;20045;-75
2022/07/05 03:25:31;;;;;;;3.83;0.52;;;16.20;99.90;;;;;;5033415;28;20053;-77
2022/07/05 03:27:59;;;;;;;4.75;1.60;;;16.30;99.90;;;;;;5040213;28;20029;-75
2022/07/05 03:30:26;;;;;;;6.07;0.90;;;16.20;99.90;;;;;;5038964;28;20156;-76
2022/07/05 03:32:53;;;;;;;9.75;2.53;;;16.20;99.90;;;;;;5036781;28;20080;-76
2022/07/05 03:35:21;;;;;;;3.85;0.73;;;16.10;99.90;;;;;;5046795;28;20464;-76
2022/07/05 03:37:48;;;;;;;5.18;0.85;;;16.20;99.90;;;;;;5050480;28;20040;-75
2022/07/05 03:40:15;;;;;;;4.25;0.90;;;16.20;99.90;;;;;;5039434;28;20386;-75
2022/07/05 03:42:43;;;;;;;7.45;1.05;;;16.20;99.90;;;;;;5032798;28;20034;-76
2022/07/05 03:45:10;;;;;;;2.58;0.60;;;16.10;99.90;;;;;;5050271;28;20025;-75
2022/07/05 03:47:38;;;;;;;3.10;0.40;;;16.10;99.90;;;;;;5049198;28;20021;-77
2022/07/05 03:50:06;;;;;;;2.75;0.40;;;16.00;99.90;;;;;;5038691;28;20036;-75
2022/07/05 03:52:33;;;;;;;4.00;0.63;;;15.90;99.90;;;;;;5032591;28;20056;-75
2022/07/05 03:55:00;;;;;;;3.35;0.65;;;15.80;99.90;;;;;;5030426;28;20033;-77
2022/07/05 03:57:28;;;;;;;5.60;0.40;;;15.70;99.90;;;;;;5030721;28;20533;-75
2022/07/05 03:59:56;;;;;;;2.15;0.57;;;15.60;99.90;;;;;;5043078;28;20044;-75
2022/07/05 04:02:23;;;;;;;1.27;0.73;;;15.60;99.90;;;;;;5050218;28;20025;-75
2022/07/05 04:04:50;;;;;;;3.13;0.52;;;15.60;99.90;;;;;;5049397;28;20036;-73
2022/07/05 04:07:18;;;;;;;6.03;0.47;;;15.50;99.90;;;;;;5032682;28;20391;-75
2022/07/05 04:09:48;;;;;;;6.65;1.30;;;15.40;99.90;;;;;;5048294;28;20711;-76
2022/07/05 04:12:15;;;;;;;5.45;0.50;;;15.40;99.90;;;;;;5045272;28;20041;-77
2022/07/05 04:14:43;;;;;;;5.22;0.63;;;15.40;99.90;;;;;;5030061;28;20395;-76
2022/07/05 04:17:10;;;;;;;6.22;0.90;;;15.40;99.90;;;;;;5049603;28;20122;-75
2022/07/05 04:19:38;;;;;;;1.35;0.43;;;15.40;99.90;;;;;;5045711;28;20044;-75
2022/07/05 04:22:05;;;;;;;1.60;0.52;;;15.40;99.90;;;;;;5028587;28;20467;-75
2022/07/05 04:25:16;;;;;;;5.72;0.55;;;15.50;99.90;;;;;;5047790;28;20496;-76
2022/07/05 04:27:20;;;;;;;3.33;0.55;;;15.50;99.90;;;;;;5049851;28;20367;-76
2022/07/05 04:29:47;;;;;;;4.70;0.70;;;15.50;99.90;;;;;;5049143;28;20037;-75
2022/07/05 04:32:14;;;;;;;5.40;0.60;;;15.60;99.90;;;;;;5049971;28;20501;-75
2022/07/05 04:34:42;;;;;;;10.02;2.25;;;15.70;99.90;;;;;;5033151;28;20038;-73
2022/07/05 04:37:09;;;;;;;5.97;1.70;;;15.80;99.90;;;;;;5047384;28;20037;-76
2022/07/05 04:39:37;;;;;;;2.25;1.17;;;15.90;99.90;;;;;;5048363;28;20029;-76
2022/07/05 04:42:04;;;;;;;3.10;0.75;;;15.90;99.90;;;;;;5047033;28;20036;-74
2022/07/05 04:44:32;;;;;;;4.47;0.90;;;16.00;99.90;;;;;;5049687;28;20030;-73
2022/07/05 04:46:59;;;;;;;6.82;0.98;;;16.00;99.90;;;;;;5042284;28;20022;-72
2022/07/05 04:49:26;;;;;;;7.95;1.83;;;16.00;99.90;;;;;;5035681;28;20111;-74
2022/07/05 04:51:54;;;;;;;5.53;0.75;;;16.00;99.90;;;;;;5032515;28;20136;-72
2022/07/05 04:54:21;;;;;;;1.83;0.75;;;16.00;99.90;;;;;;5048832;28;20050;-72
2022/07/05 04:56:48;;;;;;;9.15;1.63;;;15.90;99.90;;;;;;5045123;28;20040;-74
2022/07/05 04:59:16;;;;;;;4.20;0.85;;;15.90;99.90;;;;;;5045728;28;20029;-74
2022/07/05 05:01:43;;;;;;;5.55;2.88;;;15.90;99.90;;;;;;5045048;28;20558;-75
2022/07/05 05:04:10;;;;;;;2.58;0.75;;;15.80;99.90;;;;;;5052242;28;20382;-78
2022/07/05 05:06:38;;;;;;;3.75;0.95;;;15.80;99.90;;;;;;5043690;28;20037;-76
2022/07/05 05:09:06;;;;;;;6.63;1.17;;;15.70;99.90;;;;;;5043735;28;20536;-75
2022/07/05 05:11:33;;;;;;;7.18;1.45;;;15.70;99.90;;;;;;5040802;28;20040;-74
2022/07/05 05:14:01;;;;;;;3.53;0.43;;;15.70;99.90;;;;;;5035277;28;20040;-74
2022/07/05 05:16:28;;;;;;;3.88;0.60;;;15.60;99.90;;;;;;5062920;28;20443;-74
2022/07/05 05:18:56;;;;;;;6.43;1.17;;;15.50;99.90;;;;;;5053252;28;20032;-76
2022/07/05 05:21:23;;;;;;;5.15;0.80;;;15.50;99.90;;;;;;5044148;28;20136;-76
2022/07/05 05:23:51;;;;;;;4.32;0.70;;;15.50;99.90;;;;;;5045487;28;20040;-73
2022/07/05 05:26:18;;;;;;;8.02;0.65;;;15.40;99.90;;;;;;5036064;28;20040;-75
2022/07/05 05:28:45;;;;;;;5.93;0.77;;;15.50;99.90;;;;;;5038930;28;20283;-73
2022/07/05 05:31:12;;;;;;;3.35;0.55;;;15.50;99.90;;;;;;5040488;28;20548;-74
2022/07/05 05:33:40;;;;;;;2.20;0.70;;;15.40;99.90;;;;;;5040150;28;20034;-74
2022/07/05 05:36:07;;;;;;;3.25;0.70;;;15.30;99.90;;;;;;5057750;28;20377;-74
2022/07/05 05:38:35;;;;;;;7.63;0.82;;;15.30;99.90;;;;;;5050602;28;20033;-73
2022/07/05 05:41:02;;;;;;;3.00;0.70;;;15.20;99.90;;;;;;5044520;28;20513;-74
2022/07/05 05:43:30;;;;;;;1.90;0.40;;;15.10;99.90;;;;;;5045798;28;20040;-73
2022/07/05 05:45:57;;;;;;;1.30;0.25;;;15.00;99.90;;;;;;5056272;28;20594;-72
2022/07/05 05:48:24;;;;;;;4.20;0.40;;;14.90;99.90;;;;;;5044240;28;20061;-75
2022/07/05 05:50:52;;;;;;;3.28;0.40;;;14.80;99.90;;;;;;5038565;28;20490;-74
2022/07/05 05:53:19;;;;;;;5.72;0.50;;;14.80;99.90;;;;;;5050934;28;20049;-74
2022/07/05 05:55:47;;;;;;;7.75;0.70;;;14.80;99.90;;;;;;5054796;28;20033;-73
2022/07/05 05:58:18;;;;;;;1.83;0.20;;;14.80;99.90;;;;;;5058271;28;20132;-74
2022/07/05 06:00:50;;;;;;;3.05;1.40;;;14.80;99.90;;;;;;5049453;28;20025;-73
2022/07/05 06:03:19;;;;;;;1.80;0.65;;;14.90;99.90;;;;;;5030331;28;20053;-74
2022/07/05 06:05:46;;;;;;;4.50;0.82;;;14.90;99.90;;;;;;5062789;28;20028;-75
2022/07/05 06:08:14;;;;;;;2.55;0.80;;;14.90;99.90;;;;;;5049143;28;20029;-75
2022/07/05 06:10:42;;;;;;;4.65;0.93;;;14.90;99.90;;;;;;5035708;28;20037;-74
2022/07/05 06:13:10;;;;;;;3.42;0.57;;;14.90;99.90;;;;;;5051813;28;20043;-75
2022/07/05 06:15:40;;;;;;;4.63;1.00;;;14.80;99.90;;;;;;5053697;28;20466;-72
2022/07/05 06:18:09;;;;;;;4.55;0.68;;;14.70;99.90;;;;;;5054578;28;20037;-74
2022/07/05 06:20:37;;;;;;;4.00;0.80;;;14.60;99.90;;;;;;5034003;28;20021;-74
2022/07/05 06:23:06;;;;;;;2.20;0.50;;;14.60;99.90;;;;;;5031783;28;20116;-73
2022/07/05 06:25:34;;;;;;;1.92;0.65;;;14.50;99.90;;;;;;5057020;28;20025;-74
2022/07/05 06:28:04;;;;;;;5.30;0.50;;;14.40;99.90;;;;;;5050979;28;20506;-75
2022/07/05 06:30:32;;;;;;;5.78;0.68;;;14.40;99.90;;;;;;5033179;28;20049;-74
2022/07/05 06:33:00;;;;;;;4.22;0.50;;;14.30;99.90;;;;;;5037618;28;20030;-74
2022/07/05 06:35:28;;;;;;;3.92;0.65;;;14.30;99.90;;;;;;5051111;28;20060;-74
2022/07/05 06:37:56;;;;;;;2.17;0.40;;;14.20;99.90;;;;;;5037502;28;20021;-73
2022/07/05 06:40:25;;;;;;;4.82;0.60;;;14.20;99.90;;;;;;5032904;28;20029;-73
2022/07/05 06:42:54;;;;;;;1.27;0.88;;;14.20;99.90;;;;;;5032283;28;20032;-75
2022/07/05 06:45:22;;;;;;;4.95;0.63;;;14.10;99.90;;;;;;5064445;28;20021;-73
2022/07/05 06:48:01;;;;;;;2.30;0.70;;;14.10;99.90;;;;;;5050067;28;20066;-74
2022/07/05 06:50:30;;;;;;;5.75;0.77;;;14.00;99.90;;;;;;5045453;28;20033;-76
2022/07/05 06:52:58;;;;;;;1.58;0.65;;;14.00;99.90;;;;;;5041822;28;20562;-75
2022/07/05 06:55:27;;;;;;;4.50;1.05;;;13.90;99.90;;;;;;5054233;28;20115;-76
2022/07/05 06:58:03;;;;;;;3.42;0.50;;;13.80;99.90;;;;;;5040826;28;20056;-74
2022/07/05 07:00:31;;;;;;;0.73;0.40;;;13.80;99.90;;;;;;5030504;28;20458;-75
2022/07/05 07:02:59;;;;;;;3.30;0.80;;;13.70;99.90;;;;;;5031646;28;20030;-75
2022/07/05 07:05:27;;;;;;;3.97;0.57;;;13.70;99.90;;;;;;5031976;28;20025;-73
2022/07/05 07:10:40;;;;;;;2.47;0.50;;;13.60;99.90;;;;;;5037689;28;20067;-74
2022/07/05 07:13:07;;;;;;;2.75;0.50;;;13.60;99.90;;;;;;5033751;28;20890;-74
2022/07/05 07:15:35;;;;;;;3.80;0.73;;;13.60;99.90;;;;;;5030547;28;20109;-74
2022/07/05 07:18:02;;;;;;;3.45;0.60;;;13.60;99.90;;;;;;5031847;28;20060;-74
2022/07/05 07:20:30;;;;;;;4.32;1.30;;;13.60;99.90;;;;;;5029475;28;20110;-75
2022/07/05 07:22:57;;;;;;;6.82;1.13;;;13.60;99.90;;;;;;5030237;28;20498;-75
2022/07/05 07:25:25;;;;;;;4.25;1.23;;;13.50;99.90;;;;;;5031692;28;20034;-74
2022/07/05 07:27:55;;;;;;;5.47;0.77;;;13.40;99.90;;;;;;5036730;28;20037;-73
2022/07/05 07:30:28;;;;;;;3.30;1.55;;;13.40;99.90;;;;;;5031841;28;20127;-73
2022/07/05 07:32:56;;;;;;;2.67;1.20;;;13.30;99.90;;;;;;5048721;28;20049;-73
2022/07/05 07:35:23;;;;;;;2.03;0.70;;;13.30;99.90;;;;;;5045273;28;20430;-73
2022/07/05 07:37:50;;;;;;;3.53;0.90;;;13.20;99.90;;;;;;5042216;28;20040;-72
2022/07/05 07:40:19;;;;;;;5.93;1.27;;;13.20;99.90;;;;;;5060743;28;20028;-73
2022/07/05 07:42:46;;;;;;;4.15;0.80;;;13.20;99.90;;;;;;5044157;28;20466;-74
2022/07/05 07:45:14;;;;;;;3.80;1.98;;;13.10;99.90;;;;;;5035817;28;20112;-74
2022/07/05 07:47:42;;;;;;;6.05;1.25;;;13.10;99.90;;;;;;5040646;28;20112;-74
2022/07/05 07:50:10;;;;;;;3.17;0.80;;;13.10;99.90;;;;;;5038471;28;20052;-74
2022/07/05 07:52:38;;;;;;;2.78;0.98;;;13.10;99.90;;;;;;5036143;28;20114;-74
2022/07/05 07:55:11;;;;;;;5.28;0.75;;;13.10;99.90;;;;;;5045875;28;20060;-74
2022/07/05 07:57:39;;;;;;;1.60;0.47;;;13.10;99.90;;;;;;5049667;28;20178;-74
2022/07/05 08:00:06;;;;;;;1.05;0.77;;;13.00;99.90;;;;;;5036275;28;20032;-74
2022/07/05 08:02:34;;;;;;;4.40;0.60;;;13.10;99.90;;;;;;5042630;28;20029;-74
2022/07/05 08:05:02;;;;;;;1.52;0.35;;;13.10;99.90;;;;;;5035032;28;20128;-74
2022/07/05 08:07:29;;;;;;;5.22;1.23;;;13.00;99.90;;;;;;5045806;28;20112;-75
2022/07/05 08:09:56;;;;;;;7.57;1.48;;;13.00;99.90;;;;;;5044235;28;20114;-74
2022/07/05 08:12:23;;;;;;;3.13;0.82;;;12.90;99.90;;;;;;5036661;28;20040;-74
2022/07/05 08:14:51;;;;;;;1.02;0.73;;;12.90;99.90;;;;;;5066541;28;20039;-73
2022/07/05 08:17:20;;;;;;;3.55;0.52;;;12.90;99.90;;;;;;5032328;28;20420;-74
2022/07/05 08:22:33;;;;;;;1.40;0.60;;;12.80;99.90;;;;;;5032872;28;20036;-74
2022/07/05 08:25:01;;;;;;;5.15;0.80;;;12.90;99.90;;;;;;5047321;28;20037;-75
2022/07/05 08:27:29;;;;;;;2.53;0.65;;;12.90;99.90;;;;;;5047386;28;20535;-74
2022/07/05 08:29:56;;;;;;;0.65;0.30;;;12.90;99.90;;;;;;5044589;28;20083;-72
2022/07/05 08:32:23;;;;;;;4.40;0.28;;;12.90;99.90;;;;;;5033042;28;20060;-75
2022/07/05 08:34:50;;;;;;;2.97;0.80;;;13.00;99.90;;;;;;5033772;28;20021;-75
2022/07/05 08:37:18;;;;;;;3.00;0.40;;;13.00;99.90;;;;;;5032279;28;20017;-75
2022/07/05 08:39:45;;;;;;;2.72;0.60;;;13.00;99.90;;;;;;5040708;28;20037;-73
2022/07/05 08:42:13;;;;;;;3.10;0.40;;;13.00;99.90;;;;;;5033497;28;20086;-74
2022/07/05 08:44:42;;;;;;;1.88;0.40;;;13.00;99.90;;;;;;5038614;28;20056;-73
2022/07/05 08:47:13;;;;;;;2.35;0.55;;;13.00;99.90;;;;;;5011989;28;20032;-74
2022/07/05 08:49:41;;;;;;;2.90;0.40;;;13.00;99.90;;;;;;5031815;28;20463;-73
2022/07/05 08:52:12;;;;;;;2.20;0.55;;;13.10;99.90;;;;;;5030153;28;20056;-73
2022/07/05 08:54:40;;;;;;;4.30;1.30;;;13.10;99.90;;;;;;5029037;28;20618;-75
2022/07/05 08:57:08;;;;;;;1.85;0.70;;;13.10;99.90;;;;;;5037527;28;20063;-75
2022/07/05 08:59:36;;;;;;;2.30;0.50;;;13.10;99.90;;;;;;5068047;28;20112;-74
2022/07/05 09:02:04;;;;;;;1.90;0.47;;;13.10;99.90;;;;;;5040620;28;20448;-74
2022/07/05 09:04:37;;;;;;;3.58;0.55;;;13.10;99.90;;;;;;5052526;28;20025;-74
2022/07/05 09:07:07;;;;;;;2.22;1.05;;;13.10;99.90;;;;;;5044689;28;20072;-75
2022/07/05 09:09:38;;;;;;;6.43;0.90;;;13.10;99.90;;;;;;5046091;28;20087;-72
2022/07/05 09:12:06;;;;;;;1.95;0.63;;;13.10;99.90;;;;;;5058292;28;20117;-73
2022/07/05 09:14:34;;;;;;;2.67;0.68;;;13.20;99.90;;;;;;5056027;28;20074;-73
2022/07/05 09:17:01;;;;;;;2.85;0.85;;;13.20;99.90;;;;;;5044094;28;20075;-74
2022/07/05 09:19:31;;;;;;;1.35;1.05;;;13.20;99.90;;;;;;5058842;28;20035;-77
2022/07/05 09:22:05;;;;;;;2.78;1.10;;;13.20;99.90;;;;;;5042385;28;20930;-73
2022/07/05 09:24:42;;;;;;;3.67;0.40;;;13.20;99.90;;;;;;5054969;28;20033;-73
2022/07/05 09:27:10;;;;;;;7.72;0.57;;;13.20;99.90;;;;;;5052307;28;20509;-73
2022/07/05 09:29:37;;;;;;;2.65;0.90;;;13.20;99.90;;;;;;5064022;28;20110;-73
2022/07/05 09:32:05;;;;;;;5.55;1.10;;;13.20;99.90;;;;;;5050141;28;20053;-73
2022/07/05 09:34:34;;;;;;;3.17;0.88;;;13.20;99.90;;;;;;5052947;28;20029;-71
2022/07/05 09:37:03;;;;;;;6.38;0.77;;;13.20;99.90;;;;;;5046219;28;20020;-74
2022/07/05 09:39:31;;;;;;;4.75;1.17;;;13.20;99.90;;;;;;5046730;28;20029;-71
2022/07/05 09:42:19;;;;;;;2.08;0.80;;;13.20;99.90;;;;;;5039247;28;20158;-73
2022/07/05 09:44:54;;;;;;;3.47;0.57;;;13.20;99.90;;;;;;5050718;28;20021;-73
2022/07/05 09:47:23;;;;;;;2.97;0.68;;;13.20;99.90;;;;;;5040926;28;20065;-72
2022/07/05 09:49:52;;;;;;;4.35;0.60;;;13.20;99.90;;;;;;5058497;28;20440;-74
2022/07/05 09:52:33;;;;;;;3.22;0.68;;;13.20;99.90;;;;;;5033487;28;20124;-73
2022/07/05 09:55:07;;;;;;;1.65;0.40;;;13.20;99.90;;;;;;5039132;28;20065;-73
2022/07/05 09:57:37;;;;;;;2.20;0.75;;;13.20;99.90;;;;;;5027695;28;20424;-73
2022/07/05 10:00:10;;;;;;;3.88;0.82;;;13.30;99.90;;;;;;5034553;28;20035;-73
2022/07/05 10:02:46;;;;;;;3.28;0.90;;;13.30;99.90;;;;;;5043877;28;20116;-72
2022/07/05 10:05:22;;;;;;;4.82;0.60;;;13.30;99.90;;;;;;5040890;28;20041;-73
2022/07/05 10:07:48;;;;;;;;;;;13.30;99.90;;;;;;5046007;28;20033;-73
2022/07/05 10:10:18;;;;;;;2.70;1.20;;;13.30;99.90;;;;;;5041147;28;19917;-74
2022/07/05 10:13:06;;;;;;;1.77;1.13;;;13.30;99.90;;;;;;5060937;28;20031;-72
2022/07/05 10:15:35;;;;;;;1.60;0.60;;;13.20;99.90;;;;;;5050541;28;20072;-72
2022/07/05 10:18:10;;;;;;;3.60;0.85;;;13.30;99.90;;;;;;5043413;28;20502;-72
2022/07/05 10:20:45;;;;;;;1.55;0.70;;;13.20;99.90;;;;;;5037216;28;20037;-73
2022/07/05 10:23:14;;;;;;;4.15;0.75;;;13.20;99.90;;;;;;5058709;28;20108;-72
2022/07/05 10:25:47;;;;;;;5.72;0.63;;;13.20;99.90;;;;;;5049655;28;20067;-73
2022/07/05 10:28:19;;;;;;;2.47;0.82;;;13.30;99.90;;;;;;5051695;28;20059;-73
2022/07/05 10:30:51;;;;;;;5.28;0.80;;;13.30;99.90;;;;;;5029729;28;20164;-75
2022/07/05 10:33:25;;;;;;;4.35;0.50;;;13.30;99.90;;;;;;5039441;28;20036;-72
2022/07/05 10:35:52;;;;;;;6.97;0.82;;;13.40;99.90;;;;;;5033044;28;20036;-74
2022/07/05 10:38:20;;;;;;;2.50;0.70;;;13.40;99.90;;;;;;5032467;28;20044;-72
2022/07/05 10:40:52;;;;;;;2.67;0.63;;;13.40;99.90;;;;;;5043451;28;20031;-74
2022/07/05 10:43:23;;;;;;;4.07;0.75;;;13.40;99.90;;;;;;5036572;28;20435;-73
2022/07/05 10:45:51;;;;;;;6.55;0.65;;;13.40;99.90;;;;;;5030500;28;20460;-72
2022/07/05 10:48:23;;;;;;;3.40;0.50;;;13.50;99.90;;;;;;5034116;28;20040;-75
2022/07/05 10:50:59;;;;;;;3.10;1.30;;;13.50;99.90;;;;;;5035397;28;20071;-74
2022/07/05 10:53:26;;;;;;;;;;;13.50;99.90;;;;;;5028102;28;20052;-74
2022/07/05 10:56:14;;;;;;;4.93;1.15;;;13.60;99.90;;;;;;5030537;28;19916;-73
2022/07/05 10:58:49;;;;;;;1.90;0.50;;;13.60;99.90;;;;;;5036639;28;20478;-74
2022/07/05 11:01:20;;;;;;;3.05;0.70;;;13.60;99.90;;;;;;5047444;28;20025;-75
2022/07/05 11:03:48;;;;;;;0.70;0.57;;;13.60;99.90;;;;;;5046768;28;20075;-74
2022/07/05 11:06:41;;;;;;;1.67;0.80;;;13.60;99.90;;;;;;5054021;28;20382;-73
2022/07/05 11:09:11;;;;;;;4.07;0.52;;;13.60;99.90;;;;;;5034728;28;20560;-75
2022/07/05 11:11:54;;;;;;;1.65;0.80;;;13.50;99.90;;;;;;5051872;28;20060;-74
2022/07/05 11:14:25;;;;;;;4.35;0.70;;;13.50;99.90;;;;;;5056142;28;20029;-73
2022/07/05 11:17:25;;;;;;;2.63;0.70;;;13.40;99.90;;;;;;5039294;28;20025;-73
2022/07/05 11:19:59;;;;;;;4.07;0.50;;;13.40;99.90;;;;;;5062674;28;20025;-74
2022/07/05 11:22:27;;;;;;;4.78;0.80;;;13.30;99.90;;;;;;5030481;28;20037;-74
2022/07/05 11:24:55;;;;;;;3.50;1.00;;;13.30;99.90;;;;;;5055589;28;20470;-74
2022/07/05 11:27:22;;;;;;;5.50;1.02;;;13.30;99.90;;;;;;5045029;28;20044;-74
2022/07/05 11:29:51;;;;;;;3.53;0.90;;;13.40;99.90;;;;;;5039797;28;20033;-75
2022/07/05 11:32:21;;;;;;;3.28;0.63;;;13.40;99.90;;;;;;5054473;28;20041;-73
2022/07/05 11:34:51;;;;;;;2.53;0.95;;;13.40;99.90;;;;;;5032129;28;20028;-73
2022/07/05 11:37:28;;;;;;;2.15;0.60;;;13.30;99.90;;;;;;5036303;28;20033;-72
2022/07/05 11:40:10;;;;;;;6.25;2.92;;;13.30;99.90;;;;;;5035229;28;20039;-71
2022/07/05 11:42:51;;;;;;;3.78;0.65;;;13.30;99.90;;;;;;5018525;28;20032;-73
2022/07/05 11:45:20;;;;;;;4.30;1.02;;;13.30;99.90;;;;;;5043416;28;20025;-74
2022/07/05 11:47:47;;;;;;;5.05;1.20;;;13.30;99.90;;;;;;5041047;28;20064;-74
2022/07/05 11:50:15;;;;;;;3.25;0.65;;;13.30;99.90;;;;;;5034574;28;20053;-74
2022/07/05 11:52:43;;;;;;;3.53;0.50;;;13.30;99.90;;;;;;5048539;28;20586;-73
2022/07/05 11:55:11;;;;;;;2.33;0.60;;;13.30;99.90;;;;;;5046777;28;20098;-73
2022/07/05 11:57:50;;;;;;;5.97;0.57;;;13.30;99.90;;;;;;5060343;28;20039;-76
2022/07/05 12:00:28;;;;;;;4.47;0.88;;;13.30;99.90;;;;;;5042136;28;20378;-74
2022/07/05 12:02:55;;;;;;;2.35;0.40;;;13.30;99.90;;;;;;5030552;28;20431;-75
2022/07/05 12:05:23;;;;;;;4.07;0.75;;;13.30;99.90;;;;;;5048654;28;20403;-74
2022/07/05 12:07:52;;;;;;;2.33;0.70;;;13.20;99.90;;;;;;5045575;28;20044;-76
2022/07/05 12:13:05;;;;;;;;;;;13.10;99.90;;;;;;5029936;28;20271;-75
2022/07/05 12:15:33;;;;;;;5.40;1.08;;;13.00;99.90;;;;;;5030922;28;20406;-74
2022/07/05 12:18:04;;;;;;;2.80;0.77;;;13.00;99.90;;;;;;5036957;28;20524;-74
2022/07/05 12:20:35;;;;;;;1.92;0.32;;;13.00;99.90;;;;;;5030606;28;20467;-76
2022/07/05 12:23:03;;;;;;;3.47;0.50;;;12.90;99.90;;;;;;5041586;28;20037;-77
2022/07/05 12:25:32;;;;;;;3.15;0.80;;;12.90;99.90;;;;;;5046451;28;20534;-77
2022/07/05 12:28:01;;;;;;;5.53;0.73;;;12.90;99.90;;;;;;5057262;28;20526;-75
2022/07/05 12:30:32;;;;;;;2.13;1.30;;;12.90;99.90;;;;;;5051811;28;20094;-78
2022/07/05 12:33:12;;;;;;;3.20;0.88;;;12.80;99.90;;;;;;5048430;28;20025;-77
2022/07/05 12:35:40;;;;;;;7.43;0.90;;;12.90;99.90;;;;;;5046675;28;20037;-77
2022/07/05 12:38:09;;;;;;;4.68;0.60;;;12.90;99.90;;;;;;5037387;28;20401;-75
2022/07/05 12:40:38;;;;;;;6.80;1.25;;;12.90;99.90;;;;;;5058009;28;20039;-73
2022/07/05 12:43:12;;;;;;;3.25;0.50;;;12.90;99.90;;;;;;5057179;28;20379;-73
2022/07/05 12:45:44;;;;;;;5.18;0.70;;;12.90;99.90;;;;;;5052968;28;20116;-75
2022/07/05 12:48:12;;;;;;;6.95;2.13;;;12.90;99.90;;;;;;5044749;28;20146;-74
2022/07/05 12:50:51;;;;;;;2.03;0.68;;;12.90;99.90;;;;;;5045210;28;20044;-75
2022/07/05 12:58:57;;;;;;;1.63;0.60;;;12.90;99.90;;;;;;5057227;28;20048;-75
2022/07/05 13:01:36;;;;;;;5.82;0.90;;;12.90;99.90;;;;;;5047371;28;20106;-72
2022/07/05 13:04:15;;;;;;;2.63;0.68;;;12.90;99.90;;;;;;5051827;28;20067;-73
2022/07/05 13:07:03;;;;;;;8.00;1.08;;;12.90;99.90;;;;;;5053518;28;20126;-73
2022/07/05 13:09:30;;;;;;;2.95;0.40;;;12.90;99.90;;;;;;5063291;28;20029;-75
2022/07/05 13:12:26;;;;;;;2.53;0.65;;;13.00;99.90;;;;;;5052209;28;20048;-74